createdAt,value
2022-11-01T00:00:37.467Z,9.85
2022-11-01T00:03:23.575Z,9.88
2022-11-01T00:06:08.991Z,9.38
2022-11-01T00:08:54.647Z,9.55
2022-11-01T00:11:40.502Z,8.68
2022-11-01T00:14:29.309Z,9.30
2022-11-01T00:17:17.239Z,10.35
2022-11-01T00:20:02.733Z,9.18
2022-11-01T00:22:48.263Z,9.50
2022-11-01T00:25:33.421Z,9.20
2022-11-01T00:28:22.178Z,9.70
2022-11-01T00:31:11.807Z,8.63
2022-11-01T00:33:58.335Z,9.90
2022-11-01T00:36:43.825Z,8.77
2022-11-01T00:39:31.458Z,9.38
2022-11-01T00:42:17.194Z,9.82
2022-11-01T00:45:02.784Z,10.45
2022-11-01T00:47:48.730Z,9.00
2022-11-01T00:50:40.962Z,8.57
2022-11-01T00:53:26.384Z,8.38
2022-11-01T00:56:24.973Z,8.10
2022-11-01T00:59:10.470Z,8.32
2022-11-01T01:01:56.371Z,8.15
2022-11-01T01:04:47.786Z,7.50
2022-11-01T01:07:33.584Z,8.30
2022-11-01T01:10:19.239Z,7.75
2022-11-01T01:13:07.523Z,7.32
2022-11-01T01:15:53.052Z,7.13
2022-11-01T01:18:38.878Z,7.60
2022-11-01T01:21:24.313Z,6.88
2022-11-01T01:24:09.874Z,7.13
2022-11-01T01:26:54.959Z,7.03
2022-11-01T01:29:41.800Z,7.28
2022-11-01T01:32:27.467Z,7.45
2022-11-01T01:35:13.144Z,7.80
2022-11-01T01:37:58.626Z,7.47
2022-11-01T01:40:43.904Z,7.18
2022-11-01T01:43:41.930Z,6.53
2022-11-01T01:46:27.295Z,6.57
2022-11-01T01:49:13.001Z,6.95
2022-11-01T01:51:58.751Z,6.80
2022-11-01T01:54:47.725Z,6.72
2022-11-01T01:57:34.227Z,7.13
2022-11-01T02:00:20.311Z,6.47
2022-11-01T02:03:07.468Z,6.45
2022-11-01T02:05:57.712Z,6.60
2022-11-01T02:08:50.780Z,6.53
2022-11-01T02:11:36.402Z,6.40
2022-11-01T02:14:24.624Z,7.38
2022-11-01T02:17:41.892Z,6.30
2022-11-01T02:20:43.301Z,6.70
2022-11-01T02:23:40.363Z,5.78
2022-11-01T02:27:01.354Z,5.68
2022-11-01T02:30:15.690Z,6.13
2022-11-01T02:33:33.789Z,5.15
2022-11-01T02:36:37.464Z,5.38
2022-11-01T02:39:27.342Z,5.15
2022-11-01T02:42:27.984Z,5.80
2022-11-01T02:45:28.906Z,5.07
2022-11-01T02:48:15.901Z,4.70
2022-11-01T02:51:01.636Z,4.25
2022-11-01T02:53:47.109Z,4.95
2022-11-01T02:56:35.238Z,4.68
2022-11-01T02:59:24.948Z,3.95
2022-11-01T03:02:16.554Z,4.22
2022-11-01T03:05:02.356Z,3.58
2022-11-01T03:08:03.031Z,2.28
2022-11-01T03:10:55.835Z,2.45
2022-11-01T03:14:00.925Z,2.22
2022-11-01T03:17:14.526Z,2.83
2022-11-01T03:20:09.593Z,1.88
2022-11-01T03:22:58.690Z,1.60
2022-11-01T03:25:50.672Z,1.67
2022-11-01T03:28:46.697Z,1.92
2022-11-01T03:31:36.512Z,1.75
2022-11-01T03:34:23.605Z,1.20
2022-11-01T03:37:11.962Z,1.30
2022-11-01T03:40:02.965Z,1.30
2022-11-01T03:42:51.809Z,1.10
2022-11-01T03:45:42.858Z,1.27
2022-11-01T03:48:28.271Z,1.35
2022-11-01T03:51:16.569Z,1.20
2022-11-01T03:54:02.077Z,1.73
2022-11-01T03:56:50.092Z,1.55
2022-11-01T03:59:35.269Z,1.63
2022-11-01T04:02:20.630Z,1.40
2022-11-01T04:05:06.583Z,1.45
2022-11-01T04:07:52.714Z,1.45
2022-11-01T04:10:38.661Z,2.13
2022-11-01T04:13:24.318Z,2.40
2022-11-01T04:16:29.499Z,1.67
2022-11-01T04:19:33.143Z,2.43
2022-11-01T04:22:20.753Z,1.90
2022-11-01T04:25:09.178Z,2.20
2022-11-01T04:27:57.891Z,2.17
2022-11-01T04:30:43.880Z,2.15
2022-11-01T04:33:31.932Z,1.40
2022-11-01T04:36:20.583Z,2.00
2022-11-01T04:39:07.098Z,1.35
2022-11-01T04:41:52.427Z,2.08
2022-11-01T04:44:37.835Z,2.25
2022-11-01T04:47:23.195Z,2.45
2022-11-01T04:50:08.971Z,2.13
2022-11-01T04:52:54.759Z,2.67
2022-11-01T04:55:42.932Z,2.97
2022-11-01T04:58:28.462Z,2.00
2022-11-01T05:01:15.064Z,2.75
2022-11-01T05:04:00.989Z,1.63
2022-11-01T05:06:46.886Z,2.65
2022-11-01T05:09:35.120Z,2.60
2022-11-01T05:12:20.604Z,2.25
2022-11-01T05:15:08.091Z,3.20
2022-11-01T05:17:53.529Z,2.58
2022-11-01T05:20:39.083Z,2.10
2022-11-01T05:23:24.939Z,1.90
2022-11-01T05:26:10.823Z,2.28
2022-11-01T05:28:58.285Z,2.38
2022-11-01T05:32:09.395Z,1.65
2022-11-01T05:34:55.191Z,2.20
2022-11-01T05:37:40.426Z,3.22
2022-11-01T05:40:26.527Z,3.05
2022-11-01T05:43:12.191Z,3.10
2022-11-01T05:46:00.574Z,2.17
2022-11-01T05:48:46.097Z,3.08
2022-11-01T05:51:33.109Z,2.08
2022-11-01T05:54:18.793Z,2.58
2022-11-01T05:57:05.732Z,2.75
2022-11-01T05:59:50.871Z,2.53
2022-11-01T06:02:36.495Z,3.33
2022-11-01T06:05:21.875Z,2.63
2022-11-01T06:08:10.317Z,2.78
2022-11-01T06:11:02.993Z,2.75
2022-11-01T06:13:52.191Z,2.92
2022-11-01T06:16:37.499Z,3.30
2022-11-01T06:19:23.106Z,3.00
2022-11-01T06:22:08.710Z,3.42
2022-11-01T06:24:54.375Z,2.85
2022-11-01T06:27:39.873Z,3.05
2022-11-01T06:30:25.330Z,2.65
2022-11-01T06:33:11.029Z,3.30
2022-11-01T06:35:56.565Z,3.55
2022-11-01T06:38:42.245Z,3.85
2022-11-01T06:41:27.498Z,2.80
2022-11-01T06:44:16.128Z,3.22
2022-11-01T06:47:01.479Z,2.85
2022-11-01T06:49:46.916Z,2.83
2022-11-01T06:52:32.207Z,3.63
2022-11-01T06:55:17.674Z,3.70
2022-11-01T06:58:12.002Z,3.53
2022-11-01T07:00:57.181Z,3.50
2022-11-01T07:03:42.644Z,3.97
2022-11-01T07:06:30.780Z,3.08
2022-11-01T07:09:16.330Z,4.40
2022-11-01T07:12:02.762Z,4.53
2022-11-01T07:14:47.920Z,3.35
2022-11-01T07:17:33.741Z,3.80
2022-11-01T07:20:19.067Z,3.58
2022-11-01T07:23:06.204Z,4.00
2022-11-01T07:25:53.280Z,3.70
2022-11-01T07:28:39.612Z,3.55
2022-11-01T07:31:25.475Z,3.53
2022-11-01T07:34:10.715Z,3.13
2022-11-01T07:36:56.146Z,4.35
2022-11-01T07:39:41.869Z,3.67
2022-11-01T07:42:27.142Z,3.78
2022-11-01T07:45:13.795Z,3.58
2022-11-01T07:48:02.592Z,3.72
2022-11-01T07:50:48.309Z,4.07
2022-11-01T07:53:34.684Z,3.53
2022-11-01T07:56:21.854Z,4.30
2022-11-01T07:59:09.096Z,3.92
2022-11-01T08:01:54.685Z,2.78
2022-11-01T08:04:40.031Z,3.83
2022-11-01T08:07:25.759Z,3.50
2022-11-01T08:10:12.171Z,3.33
2022-11-01T08:13:18.188Z,3.47
2022-11-01T08:16:04.066Z,3.65
2022-11-01T08:18:50.781Z,4.00
2022-11-01T08:21:36.377Z,3.70
2022-11-01T08:24:22.239Z,3.20
2022-11-01T08:27:07.527Z,2.80
2022-11-01T08:29:53.573Z,3.22
2022-11-01T08:32:38.979Z,3.75
2022-11-01T08:35:24.600Z,3.10
2022-11-01T08:38:10.312Z,3.22
2022-11-01T08:40:56.190Z,3.35
2022-11-01T08:43:44.597Z,2.95
2022-11-01T08:46:29.986Z,3.47
2022-11-01T08:49:16.783Z,3.35
2022-11-01T08:52:03.256Z,3.25
2022-11-01T08:54:54.660Z,3.35
2022-11-01T08:57:40.118Z,3.78
2022-11-01T09:00:25.718Z,3.22
2022-11-01T09:03:10.992Z,3.55
2022-11-01T09:05:57.343Z,4.13
2022-11-01T09:08:43.274Z,3.50
2022-11-01T09:11:29.462Z,4.05
2022-11-01T09:14:15.013Z,2.60
2022-11-01T09:17:03.640Z,3.80
2022-11-01T09:19:49.161Z,3.05
2022-11-01T09:22:37.344Z,3.53
2022-11-01T09:25:23.484Z,3.45
2022-11-01T09:28:08.994Z,3.15
2022-11-01T09:31:01.418Z,4.43
2022-11-01T09:33:58.103Z,3.50
2022-11-01T09:36:43.655Z,3.28
2022-11-01T09:39:28.998Z,3.35
2022-11-01T09:42:34.452Z,4.15
2022-11-01T09:45:23.002Z,3.13
2022-11-01T09:48:10.863Z,4.75
2022-11-01T09:50:59.408Z,3.22
2022-11-01T09:53:44.834Z,3.65
2022-11-01T09:56:44.508Z,4.13
2022-11-01T09:59:50.333Z,3.72
2022-11-01T10:03:00.314Z,3.38
2022-11-01T10:06:16.239Z,2.70
2022-11-01T10:09:23.115Z,3.45
2022-11-01T10:12:23.603Z,3.80
2022-11-01T10:15:11.652Z,3.28
2022-11-01T10:18:06.143Z,3.58
2022-11-01T10:20:52.948Z,3.90
2022-11-01T10:23:53.156Z,2.92
2022-11-01T10:26:44.514Z,3.38
2022-11-01T10:29:48.692Z,3.00
2022-11-01T10:32:46.837Z,3.72
2022-11-01T10:35:38.260Z,3.03
2022-11-01T10:41:50.824Z,3.15
2022-11-01T10:45:08.725Z,3.92
2022-11-01T10:47:58.550Z,3.85
2022-11-01T10:50:44.972Z,3.55
2022-11-01T10:53:34.066Z,3.10
2022-11-01T10:56:26.118Z,3.90
2022-11-01T10:59:35.137Z,2.92
2022-11-01T11:02:26.743Z,3.22
2022-11-01T11:05:16.500Z,3.67
2022-11-01T11:08:04.751Z,2.97
2022-11-01T11:10:51.282Z,3.10
2022-11-01T11:13:39.828Z,2.70
2022-11-01T11:16:40.275Z,2.83
2022-11-01T11:19:34.680Z,3.03
2022-11-01T11:22:22.974Z,2.63
2022-11-01T11:25:16.379Z,3.40
2022-11-01T11:28:02.633Z,3.00
2022-11-01T11:30:51.103Z,2.63
2022-11-01T11:33:57.217Z,2.90
2022-11-01T11:36:49.588Z,3.40
2022-11-01T11:39:37.462Z,2.72
2022-11-01T11:42:30.294Z,2.50
2022-11-01T11:45:17.537Z,2.67
2022-11-01T11:48:20.282Z,2.42
2022-11-01T11:51:06.835Z,2.17
2022-11-01T11:54:07.227Z,2.47
2022-11-01T11:57:08.926Z,3.25
2022-11-01T11:59:59.966Z,2.55
2022-11-01T12:02:52.214Z,2.33
2022-11-01T12:05:40.256Z,2.80
2022-11-01T12:08:38.367Z,2.92
2022-11-01T12:11:24.779Z,2.50
2022-11-01T12:14:22.963Z,2.75
2022-11-01T12:17:36.423Z,2.70
2022-11-01T12:20:26.756Z,2.15
2022-11-01T12:23:21.062Z,2.40
2022-11-01T12:26:13.993Z,2.35
2022-11-01T12:29:29.045Z,2.88
2022-11-01T12:32:27.887Z,3.05
2022-11-01T12:35:31.735Z,2.50
2022-11-01T12:38:39.108Z,3.28
2022-11-01T12:41:36.415Z,2.30
2022-11-01T12:44:33.422Z,2.33
2022-11-01T12:47:31.037Z,2.33
2022-11-01T12:50:46.764Z,2.15
2022-11-01T12:53:39.530Z,1.90
2022-11-01T12:56:24.923Z,2.50
2022-11-01T12:59:13.766Z,2.58
2022-11-01T13:02:07.823Z,2.55
2022-11-01T13:05:18.489Z,1.98
2022-11-01T13:08:23.583Z,2.30
2022-11-01T13:11:33.226Z,2.58
2022-11-01T13:14:27.934Z,1.98
2022-11-01T13:17:31.099Z,2.50
2022-11-01T13:20:51.678Z,2.50
2022-11-01T13:23:54.738Z,2.05
2022-11-01T13:26:44.631Z,1.98
2022-11-01T13:29:51.928Z,2.70
2022-11-01T13:32:59.222Z,2.63
2022-11-01T13:36:11.199Z,2.30
2022-11-01T13:39:17.424Z,2.10
2022-11-01T13:42:13.928Z,1.85
2022-11-01T13:45:36.734Z,2.67
2022-11-01T13:48:42.127Z,2.10
2022-11-01T13:51:41.771Z,2.33
2022-11-01T13:54:52.350Z,2.35
2022-11-01T13:57:44.804Z,2.00
2022-11-01T14:00:51.914Z,2.20
2022-11-01T14:03:36.961Z,1.80
2022-11-01T14:06:22.637Z,2.58
2022-11-01T14:09:26.513Z,2.30
2022-11-01T14:12:43.417Z,2.22
2022-11-01T14:15:33.338Z,2.65
2022-11-01T14:18:18.712Z,2.70
2022-11-01T14:21:27.051Z,2.20
2022-11-01T14:24:20.747Z,1.95
2022-11-01T14:27:24.098Z,1.98
2022-11-01T14:30:21.665Z,2.50
2022-11-01T14:33:14.035Z,2.75
2022-11-01T14:35:59.736Z,2.67
2022-11-01T14:39:00.361Z,1.95
2022-11-01T14:41:52.360Z,2.13
2022-11-01T14:44:48.113Z,2.80
2022-11-01T14:47:39.854Z,2.92
2022-11-01T14:50:47.928Z,2.03
2022-11-01T14:53:37.434Z,2.90
2022-11-01T14:56:38.255Z,2.67
2022-11-01T14:59:33.245Z,2.20
2022-11-01T15:02:19.786Z,2.95
2022-11-01T15:05:14.066Z,2.38
2022-11-01T15:08:02.790Z,2.37
2022-11-01T15:10:48.776Z,2.20
2022-11-01T15:13:39.070Z,2.33
2022-11-01T15:16:29.849Z,2.75
2022-11-01T15:19:23.130Z,3.50
2022-11-01T15:22:16.397Z,3.60
2022-11-01T15:25:05.522Z,2.67
2022-11-01T15:27:51.442Z,2.40
2022-11-01T15:30:36.910Z,2.60
2022-11-01T15:33:28.065Z,2.63
2022-11-01T15:36:23.426Z,2.10
2022-11-01T15:39:35.785Z,2.42
2022-11-01T15:42:31.302Z,3.60
2022-11-01T15:45:27.123Z,2.72
2022-11-01T15:48:19.427Z,2.20
2022-11-01T15:51:09.527Z,2.47
2022-11-01T15:54:04.169Z,2.40
2022-11-01T15:57:02.296Z,2.75
2022-11-01T15:59:57.836Z,2.75
2022-11-01T16:03:01.465Z,2.65
2022-11-01T16:06:19.641Z,2.40
2022-11-01T16:09:20.836Z,2.88
2022-11-01T16:12:30.916Z,3.00
2022-11-01T16:15:21.365Z,3.80
2022-11-01T16:18:17.398Z,3.03
2022-11-01T16:21:06.255Z,3.13
2022-11-01T16:24:02.831Z,2.95
2022-11-01T16:27:04.026Z,3.25
2022-11-01T16:29:51.339Z,2.70
2022-11-01T16:32:36.699Z,3.50
2022-11-01T16:35:32.575Z,3.38
2022-11-01T16:38:28.297Z,2.60
2022-11-01T16:41:22.808Z,2.60
2022-11-01T16:44:16.009Z,2.28
2022-11-01T16:47:01.474Z,2.35
2022-11-01T16:49:55.261Z,2.78
2022-11-01T16:52:41.479Z,3.25
2022-11-01T16:55:28.474Z,2.63
2022-11-01T16:58:18.027Z,3.05
2022-11-01T17:01:06.039Z,2.45
2022-11-01T17:03:52.852Z,2.78
2022-11-01T17:06:39.247Z,2.67
2022-11-01T17:09:27.674Z,2.55
2022-11-01T17:12:13.157Z,3.42
2022-11-01T17:14:58.470Z,3.15
2022-11-01T17:17:46.160Z,3.90
2022-11-01T17:20:33.847Z,2.72
2022-11-01T17:23:23.314Z,2.33
2022-11-01T17:26:10.478Z,2.85
2022-11-01T17:28:55.980Z,3.20
2022-11-01T17:31:41.284Z,3.50
2022-11-01T17:34:29.083Z,3.30
2022-11-01T17:37:18.809Z,4.13
2022-11-01T17:40:26.878Z,2.55
2022-11-01T17:43:17.528Z,2.92
2022-11-01T17:46:04.829Z,3.90
2022-11-01T17:48:50.078Z,2.63
2022-11-01T17:51:35.770Z,3.00
2022-11-01T17:57:09.734Z,2.67
2022-11-01T17:59:56.304Z,3.05
2022-11-01T18:02:41.689Z,2.22
2022-11-01T18:05:27.694Z,3.15
2022-11-01T18:08:19.233Z,2.55
2022-11-01T18:11:41.814Z,3.28
2022-11-01T18:17:55.281Z,2.85
2022-11-01T18:20:46.811Z,1.75
2022-11-01T18:23:32.814Z,2.00
2022-11-01T18:26:21.805Z,1.92
2022-11-01T18:29:20.907Z,1.92
2022-11-01T18:32:16.758Z,1.80
2022-11-01T18:35:21.020Z,1.98
2022-11-01T18:38:28.602Z,1.40
2022-11-01T18:41:19.967Z,2.03
2022-11-01T18:44:10.433Z,1.95
2022-11-01T18:47:11.673Z,2.47
2022-11-01T18:49:59.906Z,2.30
2022-11-01T18:52:45.581Z,2.58
2022-11-01T18:55:33.004Z,2.63
2022-11-01T18:58:27.527Z,2.90
2022-11-01T19:01:24.328Z,2.63
2022-11-01T19:04:19.856Z,3.13
2022-11-01T19:07:14.173Z,3.42
2022-11-01T19:10:03.072Z,3.65
2022-11-01T19:12:55.522Z,2.13
2022-11-01T19:15:43.402Z,2.38
2022-11-01T19:18:29.699Z,2.92
2022-11-01T19:21:20.800Z,2.78
2022-11-01T19:24:32.107Z,3.15
2022-11-01T19:27:21.995Z,3.17
2022-11-01T19:30:20.864Z,2.88
2022-11-01T19:33:23.869Z,2.88
2022-11-01T19:36:20.474Z,3.33
2022-11-01T19:39:25.332Z,2.53
2022-11-01T19:42:30.043Z,3.00
2022-11-01T19:45:29.991Z,3.20
2022-11-01T19:48:20.290Z,3.55
2022-11-01T19:51:26.552Z,3.05
2022-11-01T19:54:12.674Z,2.97
2022-11-01T19:57:02.330Z,3.15
2022-11-01T19:59:48.076Z,3.42
2022-11-01T20:02:33.710Z,2.65
2022-11-01T20:05:35.354Z,3.88
2022-11-01T20:08:33.046Z,3.53
2022-11-01T20:11:18.419Z,3.53
2022-11-01T20:14:03.978Z,3.45
2022-11-01T20:16:49.807Z,4.63
2022-11-01T20:19:35.540Z,3.63
2022-11-01T20:22:21.040Z,3.05
2022-11-01T20:25:07.618Z,2.90
2022-11-01T20:27:52.918Z,3.10
2022-11-01T20:30:38.390Z,2.42
2022-11-01T20:33:24.710Z,2.88
2022-11-01T20:36:11.512Z,2.85
2022-11-01T20:38:57.043Z,2.85
2022-11-01T20:41:42.230Z,2.97
2022-11-01T20:44:28.001Z,3.05
2022-11-01T20:47:14.434Z,2.08
2022-11-01T20:50:11.780Z,2.33
2022-11-01T20:53:01.406Z,1.88
2022-11-01T20:55:47.466Z,2.50
2022-11-01T20:58:39.777Z,2.72
2022-11-01T21:01:25.181Z,2.85
2022-11-01T21:04:17.090Z,2.30
2022-11-01T21:07:05.163Z,2.63
2022-11-01T21:09:51.906Z,2.65
2022-11-01T21:12:48.175Z,2.28
2022-11-01T21:15:36.441Z,2.60
2022-11-01T21:18:36.823Z,2.13
2022-11-01T21:21:45.265Z,2.33
2022-11-01T21:24:34.816Z,2.67
2022-11-01T21:27:26.327Z,1.70
2022-11-01T21:30:20.778Z,2.20
2022-11-01T21:33:30.036Z,2.42
2022-11-01T21:36:18.610Z,2.83
2022-11-01T21:39:14.118Z,2.53
2022-11-01T21:42:26.839Z,2.25
2022-11-01T21:45:30.155Z,2.40
2022-11-01T21:48:30.318Z,1.90
2022-11-01T21:51:15.674Z,2.63
2022-11-01T21:54:04.711Z,2.47
2022-11-01T21:56:50.204Z,2.80
2022-11-01T21:59:35.834Z,2.80
2022-11-01T22:02:21.166Z,3.17
2022-11-01T22:05:10.371Z,2.78
2022-11-01T22:08:04.976Z,3.00
2022-11-01T22:10:50.798Z,2.30
2022-11-01T22:13:36.071Z,3.17
2022-11-01T22:16:22.467Z,2.60
2022-11-01T22:19:08.110Z,2.38
2022-11-01T22:21:56.106Z,2.58
2022-11-01T22:24:41.695Z,2.40
2022-11-01T22:27:27.041Z,2.17
2022-11-01T22:30:12.717Z,2.80
2022-11-01T22:32:58.316Z,2.60
2022-11-01T22:35:43.855Z,3.40
2022-11-01T22:38:42.552Z,3.40
2022-11-01T22:41:33.167Z,3.80
2022-11-01T22:44:26.017Z,3.45
2022-11-01T22:47:24.555Z,3.08
2022-11-01T22:50:13.818Z,3.55
2022-11-01T22:52:59.297Z,3.63
2022-11-01T22:55:46.794Z,4.25
2022-11-01T22:58:37.661Z,3.97
2022-11-01T23:01:27.904Z,6.18
2022-11-01T23:04:22.012Z,6.22
2022-11-01T23:07:31.267Z,4.05
2022-11-01T23:10:27.023Z,4.25
2022-11-01T23:13:30.963Z,5.20
2022-11-01T23:16:26.290Z,4.63
2022-11-01T23:21:58.680Z,4.10
2022-11-01T23:24:44.179Z,5.30
2022-11-01T23:27:30.430Z,4.60
2022-11-01T23:30:16.035Z,4.65
2022-11-01T23:33:03.847Z,5.53
2022-11-01T23:35:55.620Z,6.25
2022-11-01T23:38:46.040Z,7.47
2022-11-01T23:41:42.993Z,4.68
2022-11-01T23:44:37.135Z,6.57
2022-11-01T23:47:27.883Z,5.88
2022-11-01T23:50:22.224Z,5.60
2022-11-01T23:53:13.787Z,6.13
2022-11-01T23:56:00.124Z,5.35
2022-11-01T23:58:54.157Z,5.65
